Flight Track Log - Related Links

Times and Time Zones

All times are in EDT time to prevent confusion due to time zone crossing. See the N1250V flight status page for this flight to view local times or setup timezone preferences in your user account.

Time Position Orientation Groundspeed Altitude Reporting Facility
EDT Latitude Longitude Course Direction KTS MPH feet Rate Location/Type
Wed 11:21:56 AM 39.0833 -84.4167 195° South 135 155 1,200  Level Cincinnati TRACON
Wed 11:22:56 AM 39.0333 -84.4333 195° South 203 234 2,300 1,250 Climbing Cincinnati TRACON
Wed 11:23:56 AM 38.9833 -84.4500 195° South 208 239 3,700 1,657 Climbing Cincinnati TRACON
Wed 11:24:41 AM 38.9514 -84.5017 232° Southwest 247 284 5,200 2,019 Climbing Indianapolis Center
Wed 11:25:43 AM 38.9147 -84.5397 219° Southwest 202 232 7,300 2,032 Climbing Indianapolis Center
Wed 11:26:45 AM 38.8628 -84.6017 223° Southwest 207 238 9,400 1,756 Climbing Indianapolis Center
Wed 11:27:46 AM 38.8158 -84.6561 222° Southwest 222 255 10,900 1,463 Climbing Indianapolis Center
Wed 11:28:48 AM 38.7658 -84.7125 221° Southwest 235 270 12,400 1,548 Climbing Indianapolis Center
Wed 11:29:50 AM 38.7164 -84.7728 224° Southwest 246 283 14,100 1,659 Climbing Indianapolis Center
Wed 11:30:51 AM 38.6869 -84.8464 243° Southwest 235 270 15,800 1,415 Climbing Indianapolis Center
Wed 11:31:53 AM 38.6489 -84.9211 237° Southwest 246 283 17,000 1,403 Climbing Indianapolis Center
Wed 11:32:55 AM 38.6086 -85.0092 240° Southwest 254 292 18,700 1,366 Climbing Indianapolis Center
Wed 11:33:56 AM 38.5700 -85.0836 236° Southwest 252 290 19,800 634 Climbing Indianapolis Center
Wed 11:34:58 AM 38.5283 -85.1667 237° Southwest 272 313 20,000 97 Climbing Indianapolis Center
Wed 11:36:00 AM 38.4861 -85.2569 239° Southwest 297 342 20,000  Level Indianapolis Center
Wed 11:37:01 AM 38.4383 -85.3528 238° Southwest 315 362 20,000  Level Indianapolis Center
Wed 11:38:03 AM 38.3892 -85.4508 237° Southwest 325 374 20,000  Level Indianapolis Center
Wed 11:39:05 AM 38.3306 -85.5700 238° Southwest 329 379 20,000  Level Indianapolis Center
Wed 11:40:07 AM 38.2806 -85.6697 237° Southwest 333 383 20,000  Level Indianapolis Center
Wed 11:41:08 AM 38.2308 -85.7683 237° Southwest 330 380 20,000  Level Indianapolis Center
Wed 11:42:10 AM 38.1811 -85.8667 237° Southwest 330 380 20,000  Level Indianapolis Center
Wed 11:43:12 AM 38.1331 -85.9639 238° Southwest 326 375 20,000  Level Indianapolis Center
Wed 11:44:14 AM 38.0839 -86.0636 238° Southwest 329 379 20,000  Level Indianapolis Center
Wed 11:45:15 AM 38.0161 -86.1414 222° Southwest 337 388 20,000  Level Indianapolis Center
Wed 11:46:17 AM 37.9425 -86.2128 217° Southwest 331 381 20,000  Level Indianapolis Center
Wed 11:47:19 AM 37.8667 -86.2831 216° Southwest 333 383 20,000  Level Indianapolis Center
Wed 11:48:21 AM 37.7833 -86.3631 217° Southwest 337 388 20,000  Level Indianapolis Center
Wed 11:49:23 AM 37.7075 -86.4325 216° Southwest 335 386 20,000  Level Indianapolis Center
Wed 11:50:24 AM 37.6306 -86.5008 215° Southwest 335 386 20,000 -98 Level Indianapolis Center
Wed 11:51:26 AM 37.5469 -86.5806 217° Southwest 340 391 19,800 -968 Descending Indianapolis Center
Wed 11:52:28 AM 37.4797 -86.6431 216° Southwest 331 381 18,000 -1,984 Descending Indianapolis Center
Wed 11:53:30 AM 37.3978 -86.7169 216° Southwest 311 358 15,700 -2,195 Descending Indianapolis Center
Wed 11:54:31 AM 37.3286 -86.7808 216° Southwest 306 352 13,500 -1,805 Descending Indianapolis Center
Wed 11:55:33 AM 37.2608 -86.8406 215° Southwest 299 344 12,000 -1,161 Descending Indianapolis Center
Wed 11:56:35 AM 37.1983 -86.8961 215° Southwest 279 321 11,100 -823 Descending Indianapolis Center
Wed 11:57:37 AM 37.1394 -86.9525 217° Southwest 267 307 10,300 -913 Descending Indianapolis Center
Wed 11:58:07 AM 37.1028 -86.9886 218° Southwest 277 319 9,700 -933 Descending Memphis Center
Wed 11:59:07 AM 37.0525 -87.0558 227° Southwest 277 319 8,900 -550 Descending Memphis Center
Wed 12:00:07 PM 37.0147 -87.1250 236° Southwest 263 303 8,600 -378 Descending Memphis Center
Wed 12:01:14 PM 36.9708 -87.1994 234° Southwest 243 280 8,100 -450 Descending Memphis Center
Wed 12:02:07 PM 36.9350 -87.2631 235° Southwest 252 290 7,700 -690 Descending Memphis Center
Wed 12:03:07 PM 36.8950 -87.3294 233° Southwest 252 290 6,800 -900 Descending Memphis Center
Wed 12:04:07 PM 36.8669 -87.3825 237° Southwest 214 246 5,900 -1,300 Descending Memphis Center
Wed 12:05:07 PM 36.8408 -87.4250 232° Southwest 161 185 4,200 -1,450 Descending Memphis Center
Wed 12:06:07 PM 36.8125 -87.4597 224° Southwest 143 165 3,000 -750 Descending Memphis Center
Wed 12:07:07 PM 36.7772 -87.4636 185° South 137 158 2,700 -384 Descending Memphis Center
Wed 12:08:12 PM 36.7311 -87.4497 166° South 135 155 2,200 -462 Descending Memphis Center

Login

Don't have an account? Register now (free) for customized features, flight alerts, and more!